Time;durP1;ratioP1;P1;durP2;ratioP2;P2;SDS_P1;SDS_P2;PMS_P1;PMS_P2;Temp;Humidity;BMP_temperature;BMP_pressure;BME280_temperature;BME280_humidity;BME280_pressure;Samples;Min_cycle;Max_cycle;Signal;HPM_P1;HPM_P2
2021/12/11 00:02:09;;;;;;;;;;;;;;;0.72;100.00;100513.25;5059650;28;20536;-40
2021/12/11 00:04:37;;;;;;;;;;;;;;;0.71;100.00;100508.94;5057969;28;19916;-43
2021/12/11 00:07:03;;;;;;;;;;;;;;;0.72;100.00;100522.94;5055585;28;19912;-41
2021/12/11 00:09:39;;;;;;;;;;;;;;;0.70;100.00;100523.03;5057580;28;19913;-42
2021/12/11 00:12:25;;;;;;;;;;;;;;;0.69;100.00;100536.28;5055633;28;19949;-43
2021/12/11 00:14:56;;;;;;;;;;;;;;;0.66;100.00;100534.72;5041579;28;19960;-41
2021/12/11 00:17:23;;;;;;;;;;;;;;;0.66;100.00;100541.72;5059019;28;19913;-42
2021/12/11 00:19:48;;;;;;;;;;;;;;;0.65;100.00;100548.78;5059388;28;19981;-42
2021/12/11 00:22:15;;;;;;;;;;;;;;;0.64;100.00;100554.97;5058633;28;19919;-43
2021/12/11 00:24:41;;;;;;;;;;;;;;;0.64;100.00;100556.78;5058280;28;19975;-41
2021/12/11 00:27:08;;;;;;;;;;;;;;;0.64;100.00;100567.28;5058983;28;19938;-41
2021/12/11 00:29:34;;;;;;;;;;;;;;;0.64;100.00;100562.03;5059595;28;20639;-42
2021/12/11 00:32:03;;;;;;;;;;;;;;;0.64;100.00;100562.84;5059541;28;19943;-42
2021/12/11 00:34:28;;;;;;;;;;;;;;;0.62;100.00;100574.44;5058732;28;19912;-42
2021/12/11 00:36:56;;;;;;;;;;;;;;;0.57;100.00;100577.38;5058073;28;19930;-43
2021/12/11 00:39:22;;;;;;;;;;;;;;;0.55;100.00;100585.34;5058901;28;19912;-42
2021/12/11 00:41:53;;;;;;;;;;;;;;;0.54;100.00;100585.44;5058409;28;20212;-43
2021/12/11 00:44:19;;;;;;;;;;;;;;;0.51;100.00;100588.28;5037878;28;19955;-41
2021/12/11 00:46:44;;;;;;;;;;;;;;;0.50;100.00;100599.75;5039915;28;20497;-44
2021/12/11 00:49:11;;;;;;;;;;;;;;;0.46;100.00;100601.75;5038159;28;19975;-43
2021/12/11 00:51:36;;;;;;;;;;;;;;;0.43;100.00;100603.72;5038204;28;20019;-44
2021/12/11 00:54:01;;;;;;;;;;;;;;;0.40;100.00;100607.38;5038234;28;20015;-41
2021/12/11 00:56:33;;;;;;;;;;;;;;;0.38;100.00;100611.09;5038205;28;19912;-43
2021/12/11 00:59:00;;;;;;;;;;;;;;;0.33;100.00;100617.47;5039477;28;19913;-41
2021/12/11 01:01:30;;;;;;;;;;;;;;;0.31;100.00;100619.34;5038621;28;19924;-42
2021/12/11 01:04:02;;;;;;;;;;;;;;;0.30;100.00;100622.06;5019998;28;19921;-42
2021/12/11 01:06:52;;;;;;;;;;;;;;;0.26;100.00;100629.31;5020432;28;20050;-45
2021/12/11 01:09:21;;;;;;;;;;;;;;;0.24;100.00;100628.59;5038555;28;19996;-43
2021/12/11 01:12:19;;;;;;;;;;;;;;;0.23;100.00;100637.38;5038549;28;20061;-41
2021/12/11 01:14:53;;;;;;;;;;;;;;;0.21;100.00;100633.19;5007126;28;20302;-44
2021/12/11 01:17:30;;;;;;;;;;;;;;;0.19;100.00;100649.06;5036000;28;19909;-42
2021/12/11 01:19:59;;;;;;;;;;;;;;;0.18;100.00;100652.59;5036443;28;19978;-44
2021/12/11 01:22:34;;;;;;;;;;;;;;;0.18;100.00;100663.09;5056005;28;19957;-42
2021/12/11 01:25:10;;;;;;;;;;;;;;;0.16;100.00;100665.00;5057217;28;19917;-41
2021/12/11 01:27:37;;;;;;;;;;;;;;;0.18;100.00;100681.50;5058503;28;20576;-43
2021/12/11 01:30:04;;;;;;;;;;;;;;;0.17;100.00;100677.16;5056943;28;19919;-41
2021/12/11 01:32:30;;;;;;;;;;;;;;;0.16;100.00;100683.38;5057205;28;19936;-44
2021/12/11 01:34:56;;;;;;;;;;;;;;;0.15;100.00;100687.81;5056115;28;19939;-42
2021/12/11 01:37:21;;;;;;;;;;;;;;;0.14;100.00;100688.72;5038903;28;19909;-42
2021/12/11 01:39:49;;;;;;;;;;;;;;;0.11;100.00;100691.53;5057161;28;19912;-42
2021/12/11 01:42:17;;;;;;;;;;;;;;;0.11;100.00;100701.22;5039300;28;19934;-44
2021/12/11 01:44:44;;;;;;;;;;;;;;;0.10;100.00;100703.00;5058315;28;19932;-43
2021/12/11 01:47:11;;;;;;;;;;;;;;;0.09;100.00;100709.19;5057610;28;19913;-42
2021/12/11 01:49:39;;;;;;;;;;;;;;;0.08;100.00;100720.63;5057468;28;19913;-44
2021/12/11 01:52:18;;;;;;;;;;;;;;;0.09;100.00;100726.72;5056911;28;19919;-45
2021/12/11 01:54:45;;;;;;;;;;;;;;;0.09;100.00;100734.59;5057679;28;20313;-43
2021/12/11 01:57:22;;;;;;;;;;;;;;;0.09;100.00;100750.38;5058432;28;19920;-43
2021/12/11 01:59:52;;;;;;;;;;;;;;;0.08;100.00;100754.75;5057800;28;19921;-44
2021/12/11 02:02:20;;;;;;;;;;;;;;;0.07;100.00;100766.22;5038838;28;19913;-41
2021/12/11 02:04:46;;;;;;;;;;;;;;;0.05;100.00;100764.59;5057723;28;19931;-42
2021/12/11 02:07:15;;;;;;;;;;;;;;;0.06;100.00;100764.50;5057210;28;19912;-43
2021/12/11 02:09:44;;;;;;;;;;;;;;;0.07;100.00;100770.59;5038692;28;19920;-42
2021/12/11 02:12:17;;;;;;;;;;;;;;;0.07;100.00;100771.47;5056659;28;20282;-43
2021/12/11 02:14:47;;;;;;;;;;;;;;;0.08;100.00;100772.28;5057024;28;20076;-43
2021/12/11 02:17:14;;;;;;;;;;;;;;;0.09;100.00;100780.09;5057634;28;19919;-41
2021/12/11 02:19:39;;;;;;;;;;;;;;;0.11;100.00;100785.25;5056998;28;20354;-43
2021/12/11 02:22:07;;;;;;;;;;;;;;;0.13;100.00;100792.06;5056554;28;19916;-42
2021/12/11 02:24:34;;;;;;;;;;;;;;;0.15;100.00;100786.72;5037540;28;19936;-42
2021/12/11 02:26:59;;;;;;;;;;;;;;;0.16;100.00;100786.63;5057331;28;19919;-41
2021/12/11 02:29:31;;;;;;;;;;;;;;;0.21;100.00;100799.47;5057597;28;19912;-42
2021/12/11 02:31:59;;;;;;;;;;;;;;;0.26;100.00;100807.09;5051456;28;20103;-43
2021/12/11 02:34:33;;;;;;;;;;;;;;;0.29;100.00;100809.50;5036724;28;19923;-41
2021/12/11 02:37:04;;;;;;;;;;;;;;;0.31;100.00;100808.47;5037152;28;19912;-43
2021/12/11 02:39:32;;;;;;;;;;;;;;;0.36;100.00;100814.28;5018703;28;20723;-46
2021/12/11 02:42:00;;;;;;;;;;;;;;;0.39;100.00;100809.78;5037054;28;19917;-43
2021/12/11 02:44:37;;;;;;;;;;;;;;;0.42;100.00;100823.56;5036982;28;19930;-40
2021/12/11 02:47:05;;;;;;;;;;;;;;;0.44;100.00;100820.84;5037159;28;19920;-43
2021/12/11 02:49:36;;;;;;;;;;;;;;;0.43;100.00;100827.06;5037314;28;20240;-42
2021/12/11 02:52:23;;;;;;;;;;;;;;;0.43;100.00;100827.88;5036312;28;19912;-42
2021/12/11 02:55:02;;;;;;;;;;;;;;;0.43;100.00;100841.03;5036619;28;19913;-44
2021/12/11 02:57:31;;;;;;;;;;;;;;;0.43;100.00;100842.81;5037126;28;20300;-42
2021/12/11 03:00:05;;;;;;;;;;;;;;;0.43;100.00;100848.06;5036954;28;20534;-42
2021/12/11 03:02:31;;;;;;;;;;;;;;;0.42;100.00;100847.19;5037694;28;20464;-42
2021/12/11 03:05:06;;;;;;;;;;;;;;;0.35;100.00;100841.47;5036698;28;20012;-41
2021/12/11 03:07:37;;;;;;;;;;;;;;;0.35;100.00;100854.63;5035585;28;20027;-42
2021/12/11 03:10:07;;;;;;;;;;;;;;;0.33;100.00;100868.81;5034989;28;19953;-40
2021/12/11 03:12:33;;;;;;;;;;;;;;;0.30;100.00;100858.47;5036594;28;19913;-41
2021/12/11 03:14:58;;;;;;;;;;;;;;;0.26;100.00;100868.34;5037049;28;19909;-40
2021/12/11 03:17:25;;;;;;;;;;;;;;;0.23;100.00;100872.94;5037035;28;19974;-42
2021/12/11 03:19:52;;;;;;;;;;;;;;;0.20;100.00;100859.97;5036533;28;19924;-44
2021/12/11 03:22:20;;;;;;;;;;;;;;;0.19;100.00;100877.53;5034941;28;19915;-43
2021/12/11 03:24:46;;;;;;;;;;;;;;;0.18;100.00;100868.78;5039031;28;19936;-41
2021/12/11 03:27:11;;;;;;;;;;;;;;;0.17;100.00;100875.00;5040917;28;19913;-42
2021/12/11 03:29:36;;;;;;;;;;;;;;;0.18;100.00;100883.72;5040815;28;19912;-43
2021/12/11 03:32:04;;;;;;;;;;;;;;;0.19;100.00;100885.41;5047533;28;20007;-43
2021/12/11 03:34:31;;;;;;;;;;;;;;;0.20;100.00;100881.00;5059644;28;20726;-42
2021/12/11 03:36:57;;;;;;;;;;;;;;;0.21;100.00;100893.19;5059670;28;19908;-43
2021/12/11 03:39:26;;;;;;;;;;;;;;;0.20;100.00;100889.72;5059507;28;19919;-42
2021/12/11 03:41:54;;;;;;;;;;;;;;;0.20;100.00;100894.97;5061077;28;20232;-44
2021/12/11 03:44:19;;;;;;;;;;;;;;;0.21;100.00;100888.78;5059796;28;20103;-42
2021/12/11 03:46:45;;;;;;;;;;;;;;;0.21;100.00;100888.78;5060031;28;20018;-41
2021/12/11 03:49:13;;;;;;;;;;;;;;;0.23;100.00;100897.41;5059975;28;20005;-43
2021/12/11 03:51:40;;;;;;;;;;;;;;;0.24;100.00;100896.47;5041443;28;20113;-44
2021/12/11 03:54:07;;;;;;;;;;;;;;;0.26;100.00;100902.47;5059248;28;20510;-44
2021/12/11 03:56:32;;;;;;;;;;;;;;;0.28;100.00;100897.97;5060253;28;19936;-43
2021/12/11 03:58:58;;;;;;;;;;;;;;;0.30;100.00;100897.88;5059738;28;19917;-43
2021/12/11 04:01:31;;;;;;;;;;;;;;;0.36;100.00;100900.97;5039599;28;20004;-41
2021/12/11 04:04:01;;;;;;;;;;;;;;;0.40;100.00;100900.78;5040224;28;20383;-41
2021/12/11 04:06:26;;;;;;;;;;;;;;;0.42;100.00;100904.16;5039902;28;19912;-42
2021/12/11 04:08:53;;;;;;;;;;;;;;;0.41;100.00;100908.59;5040186;28;19943;-42
2021/12/11 04:11:20;;;;;;;;;;;;;;;0.44;100.00;100910.16;5037558;28;20041;-41
2021/12/11 04:13:47;;;;;;;;;;;;;;;0.45;100.00;100920.59;5040731;28;20008;-42
2021/12/11 04:16:13;;;;;;;;;;;;;;;0.49;100.00;100923.88;5040158;28;19962;-42
2021/12/11 04:18:38;;;;;;;;;;;;;;;0.54;100.00;100927.06;5038796;28;19909;-41
2021/12/11 04:21:03;;;;;;;;;;;;;;;0.58;100.00;100925.06;5037365;28;19939;-41
2021/12/11 04:23:29;;;;;;;;;;;;;;;0.62;100.00;100937.94;5020133;28;20273;-46
2021/12/11 04:25:55;;;;;;;;;;;;;;;0.67;100.00;100941.13;5039657;28;19917;-42
2021/12/11 04:28:21;;;;;;;;;;;;;;;0.69;100.00;100941.88;5040023;28;19963;-44
2021/12/11 04:30:49;;;;;;;;;;;;;;;0.74;100.00;100947.69;5040238;28;19913;-43
2021/12/11 04:33:14;;;;;;;;;;;;;;;0.78;100.00;100960.66;5056268;28;20501;-44
2021/12/11 04:35:42;;;;;;;;;;;;;;;0.82;100.00;100957.75;5058565;28;19917;-41
2021/12/11 04:38:08;;;;;;;;;;;;;;;0.83;100.00;100956.81;5059506;28;19966;-41
2021/12/11 04:40:36;;;;;;;;;;;;;;;0.85;100.00;100959.31;5059198;28;19924;-43
2021/12/11 04:43:07;;;;;;;;;;;;;;;0.87;100.00;100960.94;5059561;28;19912;-44
2021/12/11 04:45:35;;;;;;;;;;;;;;;0.88;100.00;100965.25;5059692;28;20013;-42
2021/12/11 04:48:11;;;;;;;;;;;;;;;0.94;100.00;100974.53;5040719;28;20763;-45
2021/12/11 04:50:52;;;;;;;;;;;;;;;0.96;100.00;100982.34;5058756;28;19928;-43
2021/12/11 04:53:37;;;;;;;;;;;;;;;0.96;100.00;100983.16;5057706;28;19913;-43
2021/12/11 05:01:59;;;;;;;;;;;;;;;1.05;100.00;100987.00;4977393;28;19944;-42
2021/12/11 05:07:31;;;;;;;;;;;;;;;1.10;100.00;100988.44;5032945;28;19916;-42
2021/12/11 05:10:09;;;;;;;;;;;;;;;1.10;100.00;101001.59;5056308;28;19913;-41
2021/12/11 05:12:35;;;;;;;;;;;;;;;1.14;100.00;101001.34;5057300;28;20808;-42
2021/12/11 05:15:15;;;;;;;;;;;;;;;1.16;100.00;101017.91;5040721;28;19944;-41
2021/12/11 05:17:40;;;;;;;;;;;;;;;1.18;100.00;101014.22;5059236;28;20594;-42
2021/12/11 05:20:09;;;;;;;;;;;;;;;1.22;100.00;101015.75;5057592;28;19932;-43
2021/12/11 05:22:34;;;;;;;;;;;;;;;1.25;100.00;101009.44;5056433;28;19912;-41
2021/12/11 05:24:59;;;;;;;;;;;;;;;1.27;100.00;101016.31;5056080;28;19924;-43
2021/12/11 05:27:25;;;;;;;;;;;;;;;1.28;100.00;101011.88;5058605;28;20018;-45
2021/12/11 05:29:51;;;;;;;;;;;;;;;1.23;100.00;101014.78;5058651;28;20371;-42
2021/12/11 05:32:19;;;;;;;;;;;;;;;1.20;100.00;101022.88;5039975;28;20015;-41
2021/12/11 05:34:44;;;;;;;;;;;;;;;1.20;100.00;101024.66;5057329;28;19913;-42
2021/12/11 05:37:09;;;;;;;;;;;;;;;1.21;100.00;101024.56;5057851;28;19923;-41
2021/12/11 05:39:35;;;;;;;;;;;;;;;1.23;100.00;101029.75;5057799;28;19920;-43
2021/12/11 05:42:00;;;;;;;;;;;;;;;1.23;100.00;101024.47;5058250;28;19920;-42
2021/12/11 05:44:25;;;;;;;;;;;;;;;1.26;100.00;101034.81;5039674;28;20619;-43
2021/12/11 05:46:52;;;;;;;;;;;;;;;1.27;100.00;101041.75;5058202;28;19958;-43
2021/12/11 05:49:17;;;;;;;;;;;;;;;1.27;100.00;101037.34;5057463;28;20009;-44
2021/12/11 05:51:43;;;;;;;;;;;;;;;1.29;100.00;101050.38;5058103;28;19944;-43
2021/12/11 05:54:12;;;;;;;;;;;;;;;1.29;100.00;101038.09;5056884;28;19912;-42
2021/12/11 05:56:39;;;;;;;;;;;;;;;1.33;100.00;101045.81;5040260;28;20281;-42
2021/12/11 05:59:05;;;;;;;;;;;;;;;1.34;100.00;101045.72;5057228;28;19976;-43
2021/12/11 06:01:42;;;;;;;;;;;;;;;1.34;100.00;101043.06;5037662;28;19923;-43
2021/12/11 06:04:12;;;;;;;;;;;;;;;1.30;100.00;101042.41;5036910;28;20326;-43
2021/12/11 06:06:38;;;;;;;;;;;;;;;1.28;100.00;101046.91;5037226;28;19913;-42
2021/12/11 06:09:05;;;;;;;;;;;;;;;1.27;100.00;101053.13;5036993;28;20027;-42
2021/12/11 06:11:30;;;;;;;;;;;;;;;1.28;100.00;101056.59;5036599;28;19917;-46
2021/12/11 06:13:56;;;;;;;;;;;;;;;1.29;100.00;101060.91;5036419;28;19913;-44
2021/12/11 06:16:21;;;;;;;;;;;;;;;1.26;100.00;101061.13;5035718;28;19967;-42
2021/12/11 06:18:46;;;;;;;;;;;;;;;1.25;100.00;101052.38;5035581;28;19921;-44
2021/12/11 06:21:12;;;;;;;;;;;;;;;1.29;100.00;101067.03;5023171;28;20220;-42
2021/12/11 06:23:38;;;;;;;;;;;;;;;1.36;100.00;101072.75;5054507;28;19924;-42
2021/12/11 06:26:04;;;;;;;;;;;;;;;1.44;100.00;101075.75;5055121;28;19935;-43
2021/12/11 06:28:29;;;;;;;;;;;;;;;1.53;100.00;101076.09;5055646;28;19909;-44
2021/12/11 06:30:58;;;;;;;;;;;;;;;1.57;100.00;101077.63;5055965;28;19935;-42
2021/12/11 06:33:23;;;;;;;;;;;;;;;1.62;100.00;101080.78;5055140;28;19908;-45
2021/12/11 06:36:05;;;;;;;;;;;;;;;1.65;100.00;101084.06;5057726;28;20490;-43
2021/12/11 06:38:31;;;;;;;;;;;;;;;1.70;100.00;101090.81;5057107;28;19977;-42
2021/12/11 06:40:56;;;;;;;;;;;;;;;1.71;100.00;101088.09;5057062;28;19920;-41
2021/12/11 06:43:22;;;;;;;;;;;;;;;1.71;100.00;101093.38;5038425;28;19973;-41
2021/12/11 06:45:48;;;;;;;;;;;;;;;1.71;100.00;101096.00;5056931;28;19920;-43
2021/12/11 06:48:14;;;;;;;;;;;;;;;1.75;100.00;101107.19;5056407;28;20113;-42
2021/12/11 06:50:39;;;;;;;;;;;;;;;1.78;100.00;101112.25;5056719;28;19935;-42
2021/12/11 06:53:08;;;;;;;;;;;;;;;1.82;100.00;101114.59;5056377;28;19961;-46
2021/12/11 06:55:34;;;;;;;;;;;;;;;1.85;100.00;101121.44;5056230;28;19917;-42
2021/12/11 06:57:59;;;;;;;;;;;;;;;1.89;100.00;101122.97;5060096;28;19912;-41
2021/12/11 07:00:26;;;;;;;;;;;;;;;1.94;100.00;101130.56;5041463;28;20507;-42
2021/12/11 07:02:51;;;;;;;;;;;;;;;1.97;100.00;101122.44;5061057;28;20006;-45
2021/12/11 07:05:16;;;;;;;;;;;;;;;2.02;100.00;101126.50;5060125;28;20473;-42
2021/12/11 07:07:43;;;;;;;;;;;;;;;2.04;100.00;101136.94;5061924;28;19927;-41
2021/12/11 07:10:11;;;;;;;;;;;;;;;2.08;100.00;101134.94;5060455;28;19919;-42
2021/12/11 07:12:36;;;;;;;;;;;;;;;2.11;100.00;101132.13;5042501;28;19927;-42
2021/12/11 07:15:03;;;;;;;;;;;;;;;2.12;100.00;101132.03;5061174;28;19916;-43
2021/12/11 07:17:28;;;;;;;;;;;;;;;2.19;100.00;101138.59;5061185;28;19912;-44
2021/12/11 07:19:54;;;;;;;;;;;;;;;2.26;100.00;101149.56;5060703;28;19965;-44
2021/12/11 07:22:19;;;;;;;;;;;;;;;2.30;100.00;101144.94;5060231;28;19949;-41
2021/12/11 07:24:48;;;;;;;;;;;;;;;2.33;100.00;101155.28;5059997;28;19920;-43
2021/12/11 07:27:13;;;;;;;;;;;;;;;2.35;100.00;101159.50;5061346;28;19916;-41
2021/12/11 07:29:39;;;;;;;;;;;;;;;2.40;100.00;101156.56;5060631;28;19935;-41
2021/12/11 07:32:04;;;;;;;;;;;;;;;2.46;100.00;101160.59;5060455;28;20003;-45
2021/12/11 07:34:30;;;;;;;;;;;;;;;2.51;100.00;101159.34;5060540;28;19916;-43
2021/12/11 07:36:55;;;;;;;;;;;;;;;2.57;100.00;101168.63;5060241;28;19923;-41
2021/12/11 07:39:21;;;;;;;;;;;;;;;2.61;100.00;101172.75;5059268;28;19939;-42
2021/12/11 07:41:47;;;;;;;;;;;;;;;2.65;100.00;101173.38;5060966;28;20023;-44
2021/12/11 07:44:13;;;;;;;;;;;;;;;2.67;100.00;101174.16;5060840;28;19924;-45
2021/12/11 07:46:38;;;;;;;;;;;;;;;2.66;100.00;101178.56;5042476;28;19942;-63
2021/12/11 07:49:04;;;;;;;;;;;;;;;2.65;100.00;101176.03;5058842;28;20386;-45
2021/12/11 07:51:31;;;;;;;;;;;;;;;2.59;100.00;101172.00;5057891;28;19912;-43
2021/12/11 07:53:56;;;;;;;;;;;;;;;2.67;100.00;101182.06;5059446;28;20212;-42
2021/12/11 07:56:22;;;;;;;;;;;;;;;2.66;100.00;101193.56;5060618;28;19917;-43
2021/12/11 07:58:49;;;;;;;;;;;;;;;2.63;100.00;101199.03;5059933;28;19912;-41
2021/12/11 08:01:14;;;;;;;;;;;;;;;2.59;100.00;101195.75;5039424;28;19912;-41
2021/12/11 08:03:40;;;;;;;;;;;;;;;2.55;100.00;101196.91;5037498;28;19948;-41
2021/12/11 08:06:06;;;;;;;;;;;;;;;2.53;100.00;101204.03;5045809;28;20062;-42
2021/12/11 08:08:31;;;;;;;;;;;;;;;2.54;100.00;101206.59;5055909;28;19931;-46
2021/12/11 08:10:59;;;;;;;;;;;;;;;2.57;100.00;101213.47;5057714;28;19998;-42
2021/12/11 08:13:24;;;;;;;;;;;;;;;2.59;100.00;101217.69;5057766;28;19948;-44
2021/12/11 08:15:50;;;;;;;;;;;;;;;2.60;100.00;101223.81;5057611;28;20001;-47
2021/12/11 08:18:17;;;;;;;;;;;;;;;2.69;100.00;101230.28;5056037;28;20021;-44
2021/12/11 08:20:43;;;;;;;;;;;;;;;2.75;100.00;101240.41;5057863;28;19923;-41
2021/12/11 08:23:09;;;;;;;;;;;;;;;2.80;100.00;101247.09;5057956;28;20576;-43
2021/12/11 08:25:36;;;;;;;;;;;;;;;2.91;100.00;101254.28;5058650;28;20444;-42
2021/12/11 08:28:03;;;;;;;;;;;;;;;3.04;100.00;101262.25;5059667;28;19913;-43
2021/12/11 08:30:30;;;;;;;;;;;;;;;3.16;100.00;101269.34;5040371;28;20251;-41
2021/12/11 08:32:55;;;;;;;;;;;;;;;3.33;100.00;101278.75;5058959;28;20040;-44
2021/12/11 08:35:20;;;;;;;;;;;;;;;3.41;100.00;101286.19;5056487;28;20346;-43
2021/12/11 08:37:48;;;;;;;;;;;;;;;3.54;100.00;101278.25;5059085;28;19930;-42
2021/12/11 08:40:17;;;;;;;;;;;;;;;3.71;100.00;101283.22;5057796;28;19917;-43
2021/12/11 08:42:42;;;;;;;;;;;;;;;3.80;100.00;101297.59;5058737;28;19913;-41
2021/12/11 08:45:10;;;;;;;;;;;;;;;3.85;100.00;101299.91;5058831;28;19951;-66
2021/12/11 08:47:39;;;;;;;;;;;;;;;3.90;100.00;101303.94;5058133;28;19920;-41
2021/12/11 08:50:04;;;;;;;;;;;;;;;3.94;100.00;101307.22;5056721;28;19934;-44
2021/12/11 08:52:35;;;;;;;;;;;;;;;4.01;100.00;101319.03;5039899;28;19932;-42
2021/12/11 08:55:04;;;;;;;;;;;;;;;4.05;100.00;101322.31;5056926;28;19924;-44
2021/12/11 08:57:30;;;;;;;;;;;;;;;4.06;100.00;101324.84;5059396;28;19931;-43
2021/12/11 08:59:58;;;;;;;;;;;;;;;4.08;100.00;101325.59;5059396;28;19973;-41
2021/12/11 09:02:26;;;;;;;;;;;;;;;4.10;100.00;101336.88;5057989;28;19927;-43
2021/12/11 09:04:56;;;;;;;;;;;;;;;4.13;100.00;101345.59;5055604;28;19917;-41
2021/12/11 09:07:21;;;;;;;;;;;;;;;4.16;100.00;101355.91;5055954;28;19913;-43
2021/12/11 09:09:46;;;;;;;;;;;;;;;4.22;100.00;101358.16;5055982;28;20011;-44
2021/12/11 09:12:14;;;;;;;;;;;;;;;4.26;100.00;101362.25;5056679;28;20140;-45
2021/12/11 09:14:43;;;;;;;;;;;;;;;4.30;100.00;101369.03;5056567;28;19920;-45
2021/12/11 09:17:11;;;;;;;;;;;;;;;4.35;100.00;101382.78;5054863;28;19909;-44
2021/12/11 09:19:36;;;;;;;;;;;;;;;4.36;100.00;101397.69;5055178;28;19976;-43
2021/12/11 09:22:04;;;;;;;;;;;;;;;4.38;100.00;101397.56;5051727;28;19955;-45
2021/12/11 09:24:37;;;;;;;;;;;;;;;4.37;100.00;101399.38;5055352;28;20332;-43
2021/12/11 09:27:10;;;;;;;;;;;;;;;4.32;100.00;101404.13;5055875;28;19981;-43
2021/12/11 09:29:40;;;;;;;;;;;;;;;4.33;100.00;101418.19;5055287;28;20360;-46
2021/12/11 09:32:27;;;;;;;;;;;;;;;4.34;100.00;101425.19;5055211;28;20072;-43
2021/12/11 09:35:04;;;;;;;;;;;;;;;4.38;100.00;101414.31;5054889;28;20346;-43
2021/12/11 09:37:30;;;;;;;;;;;;;;;4.37;100.00;101428.47;5056485;28;19999;-41
2021/12/11 09:39:58;;;;;;;;;;;;;;;4.32;100.00;101430.59;5057437;28;20007;-42
2021/12/11 09:42:23;;;;;;;;;;;;;;;4.34;100.00;101433.13;5057854;28;19976;-42
2021/12/11 09:44:52;;;;;;;;;;;;;;;4.36;100.00;101444.44;5057376;28;20063;-41
2021/12/11 09:47:28;;;;;;;;;;;;;;;4.33;100.00;101456.09;5057257;28;20551;-43
2021/12/11 09:49:58;;;;;;;;;;;;;;;4.32;100.00;101458.84;5055979;28;20330;-42
2021/12/11 09:52:24;;;;;;;;;;;;;;;4.30;100.00;101464.22;5057068;28;20035;-42
2021/12/11 09:55:10;;;;;;;;;;;;;;;4.26;100.00;101457.44;5056652;28;19917;-43
2021/12/11 09:57:36;;;;;;;;;;;;;;;4.22;100.00;101464.72;5056925;28;20611;-42
2021/12/11 10:00:07;;;;;;;;;;;;;;;4.22;100.00;101466.53;5057568;28;19924;-43
2021/12/11 10:02:33;;;;;;;;;;;;;;;4.20;100.00;101468.44;5058012;28;20107;-41
2021/12/11 10:05:19;;;;;;;;;;;;;;;4.18;100.00;101471.19;5039264;28;20098;-45
2021/12/11 10:08:01;;;;;;;;;;;;;;;4.16;100.00;101473.09;5057937;28;20152;-41
2021/12/11 10:10:27;;;;;;;;;;;;;;;4.15;100.00;101481.13;5057329;28;20022;-46
2021/12/11 10:12:54;;;;;;;;;;;;;;;4.14;100.00;101487.34;5057567;28;20437;-41
2021/12/11 10:15:25;;;;;;;;;;;;;;;4.11;100.00;101485.78;5055683;28;20713;-42
2021/12/11 10:17:53;;;;;;;;;;;;;;;4.13;100.00;101496.25;5056174;28;19924;-42
2021/12/11 10:20:39;;;;;;;;;;;;;;;4.11;100.00;101497.19;5036097;28;19922;-42
2021/12/11 10:23:06;;;;;;;;;;;;;;;4.06;100.00;101504.59;5052709;28;20449;-44
2021/12/11 10:25:32;;;;;;;;;;;;;;;4.03;100.00;101503.94;5055192;28;20022;-46
2021/12/11 10:27:58;;;;;;;;;;;;;;;4.03;100.00;101512.72;5053931;28;19950;-43
2021/12/11 10:30:24;;;;;;;;;;;;;;;4.09;100.00;101509.69;5053802;28;19912;-42
2021/12/11 10:32:50;;;;;;;;;;;;;;;4.21;100.00;101512.41;5054579;28;19916;-42
2021/12/11 10:35:19;;;;;;;;;;;;;;;4.33;100.00;101506.31;5052789;28;19927;-43
2021/12/11 10:37:45;;;;;;;;;;;;;;;4.46;100.00;101509.84;5055716;28;20871;-42
2021/12/11 10:40:13;;;;;;;;;;;;;;;4.62;100.00;101516.72;5055026;28;19949;-44
2021/12/11 10:42:40;;;;;;;;;;;;;;;4.73;100.00;101522.09;5054744;28;20321;-43
2021/12/11 10:45:07;;;;;;;;;;;;;;;4.76;100.00;101521.03;5054604;28;20356;-43
2021/12/11 10:47:34;;;;;;;;;;;;;;;4.79;100.00;101526.13;5055525;28;20023;-45
2021/12/11 10:50:00;;;;;;;;;;;;;;;4.81;100.00;101530.34;5031758;28;19913;-43
2021/12/11 10:52:27;;;;;;;;;;;;;;;4.79;100.00;101534.91;5034492;28;19917;-42
2021/12/11 10:54:54;;;;;;;;;;;;;;;4.74;100.00;101539.66;5034301;28;19919;-45
2021/12/11 10:57:20;;;;;;;;;;;;;;;4.72;100.00;101538.94;5034656;28;20446;-46
2021/12/11 10:59:47;;;;;;;;;;;;;;;4.70;100.00;101540.84;5034951;28;20307;-42
2021/12/11 11:02:14;;;;;;;;;;;;;;;4.66;100.00;101544.63;5034117;28;19917;-42
2021/12/11 11:04:41;;;;;;;;;;;;;;;4.60;100.00;101553.84;5034572;28;19940;-46
2021/12/11 11:07:07;;;;;;;;;;;;;;;4.66;100.00;101558.72;5034218;28;20010;-43
2021/12/11 11:09:32;;;;;;;;;;;;;;;4.79;100.00;101564.00;5015931;28;20536;-45
2021/12/11 11:12:00;;;;;;;;;;;;;;;5.01;100.00;101557.25;5052787;28;20355;-42
2021/12/11 11:14:27;;;;;;;;;;;;;;;5.17;100.00;101564.94;5054469;28;20015;-41
2021/12/11 11:16:54;;;;;;;;;;;;;;;5.27;100.00;101573.09;5054216;28;19920;-43
2021/12/11 11:19:21;;;;;;;;;;;;;;;5.26;100.00;101576.69;5053934;28;19952;-43
2021/12/11 11:21:47;;;;;;;;;;;;;;;5.20;100.00;101580.63;5055093;28;20351;-42
2021/12/11 11:24:13;;;;;;;;;;;;;;;5.24;100.00;101582.09;5036690;28;19943;-46
2021/12/11 11:26:40;;;;;;;;;;;;;;;5.32;100.00;101586.84;5053556;28;20366;-42
2021/12/11 11:29:07;;;;;;;;;;;;;;;5.40;100.00;101581.88;5053915;28;19916;-42
2021/12/11 11:31:36;;;;;;;;;;;;;;;5.46;100.00;101583.22;5053662;28;19909;-43
2021/12/11 11:34:03;;;;;;;;;;;;;;;5.48;100.00;101587.47;5055646;28;20240;-42
2021/12/11 11:36:30;;;;;;;;;;;;;;;5.49;100.00;101593.59;5055617;28;19959;-46
2021/12/11 11:38:57;;;;;;;;;;;;;;;5.54;100.00;101600.25;5052246;28;20031;-42
2021/12/11 11:41:25;;;;;;;;;;;;;;;5.64;100.00;101600.44;5054416;28;19970;-42
2021/12/11 11:43:50;;;;;;;;;;;;;;;5.72;100.00;101600.75;5057734;28;20073;-42
2021/12/11 11:46:16;;;;;;;;;;;;;;;5.79;100.00;101609.09;5058719;28;20046;-41
2021/12/11 11:48:43;;;;;;;;;;;;;;;5.89;100.00;101614.56;5057881;28;19923;-46
2021/12/11 11:51:13;;;;;;;;;;;;;;;5.97;100.00;101607.81;5038173;28;19912;-42
2021/12/11 11:53:38;;;;;;;;;;;;;;;6.04;100.00;101617.94;5035659;28;19913;-45
2021/12/11 11:56:05;;;;;;;;;;;;;;;6.05;100.00;101609.88;5057995;28;19935;-43
2021/12/11 11:58:31;;;;;;;;;;;;;;;6.06;100.00;101613.34;5059793;28;19920;-43
2021/12/11 12:00:59;;;;;;;;;;;;;;;6.00;100.00;101609.38;5059668;28;19962;-43
2021/12/11 12:03:26;;;;;;;;;;;;;;;5.97;100.00;101609.59;5059129;28;19923;-44
2021/12/11 12:05:53;;;;;;;;;;;;;;;5.98;100.00;101624.53;5059265;28;20016;-45
2021/12/11 12:08:19;;;;;;;;;;;;;;;6.03;100.00;101627.72;5057575;28;19923;-45
2021/12/11 12:10:46;;;;;;;;;;;;;;;6.09;100.00;101629.91;5053454;28;19913;-42
2021/12/11 12:13:11;;;;;;;;;;;;;;;6.13;100.00;101631.38;5040216;28;19967;-42
2021/12/11 12:15:42;;;;;;;;;;;;;;;6.16;100.00;101636.47;5040028;28;20559;-42
2021/12/11 12:18:08;;;;;;;;;;;;;;;6.20;100.00;101636.25;5039672;28;19913;-40
2021/12/11 12:20:34;;;;;;;;;;;;;;;6.34;100.00;101646.66;5038562;28;20453;-44
2021/12/11 12:23:00;;;;;;;;;;;;;;;6.57;100.00;101649.41;5038232;28;20707;-41
2021/12/11 12:25:26;;;;;;;;;;;;;;;6.76;100.00;101643.56;5039492;28;19921;-41
2021/12/11 12:27:51;;;;;;;;;;;;;;;6.94;100.00;101650.09;5039773;28;20015;-42
2021/12/11 12:30:19;;;;;;;;;;;;;;;7.09;100.00;101646.28;5051287;28;19994;-44
2021/12/11 12:32:45;;;;;;;;;;;;;;;7.14;100.00;101647.75;5055889;28;19931;-42
2021/12/11 12:35:13;;;;;;;;;;;;;;;7.14;100.00;101643.25;5055520;28;20275;-42
2021/12/11 12:37:39;;;;;;;;;;;;;;;7.15;100.00;101638.81;5054447;28;20542;-43
2021/12/11 12:40:06;;;;;;;;;;;;;;;7.11;100.00;101648.81;5055652;28;19924;-43
2021/12/11 12:42:36;;;;;;;;;;;;;;;6.99;100.00;101650.63;5057342;28;20433;-41
2021/12/11 12:45:12;;;;;;;;;;;;;;;6.97;100.00;101649.03;5056319;28;20732;-41
2021/12/11 12:47:40;;;;;;;;;;;;;;;6.89;100.00;101649.63;5039399;28;19913;-45
2021/12/11 12:50:12;;;;;;;;;;;;;;;6.84;100.00;101662.38;5056266;28;19920;-42